< Typhoon 199022 1990 Season Typhoon 199024 >
Typhoon 199023 (KYLE)
General InformationTrack Information on Google MapsDetailed Wind InformationList of All Images || Disaster Info.ResourceGoogle EarthGE AnimationAtom FeedGeoJSON
Detalied Best Track (Time Zone = UTC)
Year Month Day Hour Lat. Long. Pressure (hPa) Wind (kt) Class Image Chart
1990 10 15 06 14.3 150.3 1004 0 2 Image Chart
1990 10 15 12 14.6 149.6 1004 0 2 Image Chart
1990 10 15 18 14.8 148.7 1004 0 2 Image Chart
1990 10 16 00 15.0 148.0 1004 0 2 Image Chart
1990 10 16 06 15.1 147.6 1002 0 2 Image Chart
1990 10 16 12 15.3 147.3 998 35 3 Image Chart
1990 10 16 18 15.4 146.9 996 40 3 Image Chart
1990 10 17 00 15.6 146.5 996 40 3 Image Chart
1990 10 17 06 16.0 146.0 996 40 3 Image Chart
1990 10 17 12 16.7 145.5 992 45 3 Image Chart
1990 10 17 18 17.2 145.3 990 45 3 Image Chart
1990 10 18 00 17.6 145.0 985 50 4 Image Chart
1990 10 18 06 18.1 144.7 985 50 4 Image Chart
1990 10 18 12 18.8 144.4 985 50 4 Image Chart
1990 10 18 18 19.4 144.0 985 50 4 Image Chart
1990 10 19 00 19.8 143.8 985 50 4 Image Chart
1990 10 19 06 20.4 143.2 980 55 4 Image Chart
1990 10 19 12 20.9 142.6 980 55 4 Image Chart
1990 10 19 18 21.3 142.3 975 60 4 Image Chart
1990 10 20 00 21.9 142.1 970 65 5 Image Chart
1990 10 20 06 22.5 142.1 965 70 5 Image Chart
1990 10 20 12 23.0 142.5 960 70 5 Image Chart
1990 10 20 18 24.1 143.3 955 75 5 Image Chart
1990 10 21 00 25.1 144.4 955 75 5 Image Chart
1990 10 21 06 26.3 145.4 955 75 5 Image Chart
1990 10 21 12 27.8 146.8 960 75 5 Image Chart
1990 10 21 18 30.0 148.5 965 70 5 Image Chart
1990 10 22 00 32.4 150.5 970 65 5 Image Chart
1990 10 22 06 34.0 152.2 975 60 4 Image Chart
1990 10 22 12 35.8 153.8 980 55 4 Image Chart
1990 10 22 18 37.5 155.0 986 0 6 Image Chart
1990 10 23 00 39.0 156.0 992 0 6 Image Chart
1990 10 23 06 40.0 157.0 992 0 6 Image Chart
1990 10 23 12 42.0 158.0 994 0 6 Image Chart
1990 10 23 18 43.0 159.0 994 0 6 Image Chart
1990 10 24 00 45.0 161.0 994 0 6 Image Chart
1990 10 24 06 45.0 163.0 996 0 6 Image Chart
1990 10 24 12 45.0 166.0 1000 0 6 Image Chart
1990 10 24 18 45.0 168.0 1004 0 6 Image Chart
1990 10 25 00 45.0 170.0 1008 0 6 Image Chart
1990 10 25 06 44.0 174.0 1012 0 6 Image Chart
1990 10 25 12 43.0 178.0 1016 0 6 Image Chart
Japan Meteorological Agency Best Track Data | Correction Date : 1992-10-21
< Typhoon 199022 1990 Season Typhoon 199024 >

Help